METAR AND TAF INFORMATION
METAR FOR LCLK
ADDS - METARS form results

(1959 UTC 18 September 2018)
Data provider http://aviationweather.gov/metar/data/
 
METAR text: LCLK 181930Z 30004KT CAVOK 27/15 Q1010 NOSIG
Conditions at: LCLK (LARNACA/LARNAX A, CY) observed 1930 UTC 18 September 2018
Temperature: 27.0°C (81°F)
Dewpoint: 15.0°C (59°F) [RH = 48%]
Pressure (altimeter): 29.82 inches Hg (1010.0 mb)
Winds: from the WNW (300 degrees) at 5 MPH (4 knots; 2.1 m/s)
Visibility: 6 or more miles (10+ km)
Ceiling: ceiling and visibility are OK
Clouds: unknown
Weather: no significant weather observed at this time

METAR text: LCLK 181900Z 28005KT 260V320 CAVOK 27/16 Q1010 NOSIG
Conditions at: LCLK (LARNACA/LARNAX A, CY) observed 1900 UTC 18 September 2018
Temperature: 27.0°C (81°F)
Dewpoint: 16.0°C (61°F) [RH = 51%]
Pressure (altimeter): 29.82 inches Hg (1010.0 mb)
Winds: from the W (280 degrees) at 6 MPH (5 knots; 2.6 m/s)
Visibility: 6 or more miles (10+ km)
Ceiling: ceiling and visibility are OK
Clouds: unknown
Weather: no significant weather observed at this time

Forecast for: LCLK (LARNACA/LARNAX A, CY)
Text: TAF LCLK 181730Z 1818/1918 31006KT 9999 FEW030
Forecast period: 1800 UTC 18 September 2018 to 0800 UTC 19 September 2018
Forecast type: FROM: standard forecast or significant change
Winds: from the NW (310 degrees) at 7 MPH (6 knots; 3.1 m/s)
Visibility: 6 or more miles 10+ km)
Ceiling: at least 12,000 feet AGL
Clouds: few clouds at 3000 feet AGL
Weather: no significant weather forecast for this period
Text: BECMG 1908/1912 20012KT
Forecast period: 0800 to 1600 UTC 19 September 2018
Forecast type: BECOMING: Conditions expected to become as follows by 1200 UTC 19 September 2018
Winds: from the SSW (200 degrees) at 14 MPH (12 knots; 6.2 m/s)
Visibility: 6 or more miles 10+ km)
Ceiling: at least 12,000 feet AGL
Clouds: few clouds at 3000 feet AGL
Weather: no significant weather forecast for this period
Text: BECMG 1916/1918 30006KT
Forecast period: 1600 to 1800 UTC 19 September 2018
Forecast type: BECOMING: Conditions expected to become as follows by 1800 UTC 19 September 2018
Winds: from the WNW (300 degrees) at 7 MPH (6 knots; 3.1 m/s)
Visibility: 6 or more miles 10+ km)
Ceiling: at least 12,000 feet AGL
Clouds: few clouds at 3000 feet AGL
Weather: no significant weather forecast for this period

 AIRPORT MAP

 RUNWAY INFORMATION
Runway 04 Runway length 9776 ft Runway width 148 ft
Runway elevation 11 ft Runway displaced threshold 0 ft Runway heading 45
Runway 22 Runway length 9776 ft Runway width 148 ft
Runway elevation 6 ft Runway displaced threshold 575 ft Runway heading 225

 AIRPORT FREQUENCIES
Type APP Name APP Frequency 121.2 MHZ
Type ATIS Name ATIS Frequency 126.55 MHZ
Type TWR Name TWR Frequency 119.4 MHZ

 AIRPORT NEAR NAVIGATION AIDS
Type VOR-DME Name Larnaca Frequency 112800 KHZ
Type NDB Name Larnaca Frequency 432 KHZ



Created by Rayan Sharara,

Powered by Virtual Airlines Manager [v2.6.2]